Cleavesville, Missouri
Current Conditions -  °F | °C
As of 3:53 AM on Sunday 23 Nov 2014 (Local Time) from KVIH Reporting Station
Scattered Clouds Scattered Clouds  
Wind Chill: 52°   Ceiling: Unl
Heat Index: 52°   Visibility: 10mi
Dew Point: 46°   Wind: 10mph
Humidity: 80%   Direction: 150°SSE
Pressure: 29.69"   Gusts: NA
Location:  38.3239°N, 91.6268°W
Report Text: KVIH 230953Z AUTO 15009KT 10SM SCT028 11/08 A2969 RMK AO2 SLP053 T01110078
Loading
Personal Weather Stations






























Interactive Weather Map New forecast layout! Learn more

10-Day Weather Forecast

Advertisements
Track Severe Weather on mobile